createdAt,value
2022-10-13T00:00:58.920Z,41.92
2022-10-13T00:03:28.465Z,42.34
2022-10-13T00:05:57.674Z,42.38
2022-10-13T00:08:26.609Z,42.47
2022-10-13T00:10:54.483Z,42.09
2022-10-13T00:13:22.554Z,42.45
2022-10-13T00:50:49.649Z,42.47
2022-10-13T00:53:17.347Z,42.32
2022-10-13T00:55:45.190Z,42.52
2022-10-13T00:58:12.857Z,42.12
2022-10-13T01:00:42.129Z,42.10
2022-10-13T01:03:09.835Z,42.29
2022-10-13T01:05:37.508Z,42.57
2022-10-13T01:08:05.242Z,42.31
2022-10-13T01:10:32.911Z,42.25
2022-10-13T01:13:00.564Z,42.50
2022-10-13T01:15:28.446Z,42.61
2022-10-13T01:17:56.170Z,42.46
2022-10-13T01:23:15.984Z,42.29
2022-10-13T01:25:43.647Z,42.31
2022-10-13T01:28:11.571Z,42.30
2022-10-13T01:30:39.277Z,42.60
2022-10-13T01:33:06.996Z,42.22
2022-10-13T01:35:34.843Z,42.18
2022-10-13T01:38:02.636Z,42.13
2022-10-13T01:40:30.299Z,42.59
2022-10-13T01:42:58.313Z,42.27
2022-10-13T01:45:25.980Z,42.56
2022-10-13T01:47:53.697Z,42.32
2022-10-13T01:50:21.606Z,42.69
2022-10-13T01:52:49.298Z,42.56
2022-10-13T01:55:16.999Z,42.37
2022-10-13T01:57:44.864Z,42.58
2022-10-13T02:00:12.586Z,42.56
2022-10-13T02:02:40.294Z,42.30
2022-10-13T02:05:08.042Z,42.52
2022-10-13T02:07:36.016Z,42.34
2022-10-13T02:10:03.711Z,42.66
2022-10-13T02:12:31.635Z,42.42
2022-10-13T02:14:59.334Z,42.25
2022-10-13T02:17:27.525Z,42.40
2022-10-13T02:19:55.174Z,42.44
2022-10-13T02:22:22.878Z,42.35
2022-10-13T02:24:50.700Z,42.48
2022-10-13T02:27:18.386Z,42.36
2022-10-13T02:29:46.247Z,42.39
2022-10-13T02:32:14.185Z,42.65
2022-10-13T02:34:42.044Z,42.70
2022-10-13T02:37:09.719Z,42.67
2022-10-13T02:39:37.371Z,42.50
2022-10-13T02:42:05.409Z,42.78
2022-10-13T02:44:33.108Z,42.56
2022-10-13T02:47:01.099Z,42.73
2022-10-13T02:49:28.843Z,42.56
2022-10-13T02:51:56.588Z,42.58
2022-10-13T02:54:24.283Z,42.79
2022-10-13T02:56:52.203Z,42.52
2022-10-13T02:59:19.882Z,42.65
2022-10-13T03:01:47.735Z,42.79
2022-10-13T03:04:15.479Z,42.68
2022-10-13T03:06:43.187Z,42.85
2022-10-13T03:09:11.471Z,42.64
2022-10-13T03:11:39.177Z,42.88
2022-10-13T03:14:06.914Z,42.83
2022-10-13T03:16:34.621Z,42.74
2022-10-13T03:19:02.334Z,42.77
2022-10-13T03:21:30.072Z,42.96
2022-10-13T03:23:57.723Z,42.97
2022-10-13T03:26:25.416Z,42.57
2022-10-13T03:28:53.231Z,43.02
2022-10-13T03:31:20.868Z,43.01
2022-10-13T03:33:48.682Z,43.01
2022-10-13T03:36:16.447Z,43.02
2022-10-13T03:38:44.121Z,42.73
2022-10-13T03:41:11.890Z,42.73
2022-10-13T03:43:39.560Z,42.88
2022-10-13T03:46:07.238Z,42.99
2022-10-13T03:48:34.944Z,42.58
2022-10-13T03:51:02.649Z,42.96
2022-10-13T03:53:30.359Z,42.90
2022-10-13T03:55:58.046Z,43.03
2022-10-13T03:58:25.991Z,42.69
2022-10-13T04:00:53.654Z,42.93
2022-10-13T04:03:21.336Z,42.92
2022-10-13T04:05:49.018Z,43.10
2022-10-13T04:08:17.105Z,42.80
2022-10-13T04:10:44.819Z,42.98
2022-10-13T04:13:12.554Z,42.79
2022-10-13T04:15:40.345Z,43.06
2022-10-13T04:18:08.104Z,42.69
2022-10-13T04:20:35.804Z,42.91
2022-10-13T04:23:03.507Z,42.80
2022-10-13T04:25:31.192Z,43.02
2022-10-13T04:27:59.253Z,43.00
2022-10-13T04:30:26.940Z,42.75
2022-10-13T04:32:54.631Z,42.88
2022-10-13T04:35:22.370Z,42.90
2022-10-13T04:37:50.132Z,42.88
2022-10-13T04:40:18.229Z,43.10
2022-10-13T04:42:45.924Z,43.51
2022-10-13T04:45:13.672Z,43.48
2022-10-13T04:47:41.299Z,43.54
2022-10-13T04:50:09.038Z,43.64
2022-10-13T04:52:36.770Z,43.24
2022-10-13T04:55:04.426Z,43.62
2022-10-13T04:57:32.096Z,43.60
2022-10-13T04:59:59.727Z,43.33
2022-10-13T05:02:27.355Z,43.64
2022-10-13T05:04:55.022Z,43.70
2022-10-13T05:07:22.776Z,43.63
2022-10-13T05:09:50.553Z,43.71
2022-10-13T05:12:18.589Z,43.58
2022-10-13T05:14:46.568Z,43.79
2022-10-13T05:17:14.234Z,43.21
2022-10-13T05:19:41.910Z,43.40
2022-10-13T05:22:09.569Z,43.44
2022-10-13T05:24:41.069Z,43.53
2022-10-13T05:27:08.914Z,43.39
2022-10-13T05:29:36.600Z,43.54
2022-10-13T05:32:04.299Z,43.37
2022-10-13T05:34:32.670Z,43.37
2022-10-13T05:37:00.361Z,43.33
2022-10-13T05:39:28.053Z,43.09
2022-10-13T05:41:55.757Z,43.13
2022-10-13T05:44:24.335Z,43.67
2022-10-13T05:46:52.004Z,43.46
2022-10-13T05:49:19.823Z,43.16
2022-10-13T05:51:47.471Z,43.46
2022-10-13T05:54:15.219Z,43.18
2022-10-13T05:56:42.949Z,43.13
2022-10-13T05:59:10.678Z,43.12
2022-10-13T06:01:38.415Z,43.32
2022-10-13T06:04:06.144Z,43.33
2022-10-13T06:06:33.819Z,43.35
2022-10-13T06:09:01.647Z,43.39
2022-10-13T06:11:29.363Z,43.27
2022-10-13T06:13:57.014Z,43.43
2022-10-13T06:16:24.916Z,42.92
2022-10-13T06:18:52.713Z,43.07
2022-10-13T06:21:20.384Z,43.04
2022-10-13T06:23:49.120Z,43.42
2022-10-13T06:26:17.010Z,43.33
2022-10-13T06:28:49.112Z,43.05
2022-10-13T06:31:18.509Z,43.03
2022-10-13T06:33:46.487Z,43.11
2022-10-13T06:36:14.213Z,43.27
2022-10-13T06:38:41.897Z,43.03
2022-10-13T06:41:09.593Z,42.85
2022-10-13T06:43:40.512Z,43.03
2022-10-13T06:46:08.386Z,43.14
2022-10-13T06:48:36.300Z,43.24
2022-10-13T06:51:04.364Z,43.32
2022-10-13T06:53:32.033Z,42.98
2022-10-13T06:55:59.731Z,43.21
2022-10-13T06:58:27.433Z,43.36
2022-10-13T07:00:55.209Z,43.02
2022-10-13T07:03:23.861Z,42.93
2022-10-13T07:05:51.562Z,43.10
2022-10-13T07:08:19.467Z,43.18
2022-10-13T07:10:47.205Z,43.12
2022-10-13T07:13:14.989Z,43.20
2022-10-13T07:15:42.696Z,43.06
2022-10-13T07:18:10.446Z,43.41
2022-10-13T07:20:38.136Z,43.29
2022-10-13T07:23:05.971Z,43.06
2022-10-13T07:25:33.654Z,43.03
2022-10-13T07:28:01.376Z,43.28
2022-10-13T07:30:29.114Z,43.08
2022-10-13T07:32:56.755Z,43.40
2022-10-13T07:35:30.283Z,43.35
2022-10-13T07:37:58.485Z,43.13
2022-10-13T07:40:26.778Z,43.18
2022-10-13T07:42:55.680Z,43.35
2022-10-13T07:45:23.522Z,43.42
2022-10-13T07:47:51.573Z,43.27
2022-10-13T07:50:19.278Z,43.03
2022-10-13T07:52:46.991Z,43.33
2022-10-13T07:55:14.731Z,43.14
2022-10-13T07:57:42.383Z,43.36
2022-10-13T08:00:10.501Z,43.00
2022-10-13T08:02:38.177Z,43.16
2022-10-13T08:05:05.929Z,43.39
2022-10-13T08:07:33.653Z,43.36
2022-10-13T08:10:01.616Z,43.21
2022-10-13T08:12:29.407Z,43.41
2022-10-13T08:14:59.384Z,43.31
2022-10-13T08:17:29.610Z,43.52
2022-10-13T08:19:57.409Z,43.35
2022-10-13T08:22:28.249Z,43.45
2022-10-13T08:24:56.646Z,43.41
2022-10-13T08:27:29.233Z,43.15
2022-10-13T08:30:05.072Z,43.12
2022-10-13T08:32:32.849Z,43.43
2022-10-13T08:35:00.627Z,43.61
2022-10-13T08:37:28.493Z,43.11
2022-10-13T08:39:56.172Z,43.28
2022-10-13T08:42:24.097Z,43.56
2022-10-13T08:45:28.842Z,43.41
2022-10-13T08:47:39.485Z,43.41
2022-10-13T08:50:07.240Z,43.14
2022-10-13T08:52:35.028Z,43.26
2022-10-13T08:55:02.714Z,43.21
2022-10-13T08:57:30.409Z,43.26
2022-10-13T08:59:58.156Z,43.26
2022-10-13T09:02:27.185Z,43.06
2022-10-13T09:04:54.852Z,43.33
2022-10-13T09:07:22.794Z,43.21
2022-10-13T09:09:50.901Z,43.43
2022-10-13T09:12:22.170Z,43.38
2022-10-13T09:14:50.161Z,43.34
2022-10-13T09:17:17.939Z,43.23
2022-10-13T09:19:46.358Z,43.30
2022-10-13T09:22:14.054Z,43.05
2022-10-13T09:24:41.727Z,43.24
2022-10-13T09:27:09.405Z,43.15
2022-10-13T09:29:37.091Z,42.93
2022-10-13T09:32:04.782Z,43.35
2022-10-13T09:34:32.483Z,43.13
2022-10-13T09:37:00.213Z,42.85
2022-10-13T09:39:27.849Z,42.93
2022-10-13T09:41:55.515Z,42.99
2022-10-13T09:44:25.597Z,43.35
2022-10-13T09:46:55.385Z,43.26
2022-10-13T09:49:23.067Z,43.23
2022-10-13T09:51:50.748Z,42.99
2022-10-13T09:54:18.402Z,42.85
2022-10-13T09:56:46.111Z,43.12
2022-10-13T09:59:13.761Z,43.39
2022-10-13T10:01:41.502Z,43.15
2022-10-13T10:04:09.228Z,43.05
2022-10-13T10:06:36.959Z,42.91
2022-10-13T10:09:05.203Z,43.29
2022-10-13T10:11:33.814Z,43.07
2022-10-13T10:14:01.592Z,43.07
2022-10-13T10:16:31.366Z,43.21
2022-10-13T10:18:59.181Z,43.17
2022-10-13T10:21:26.924Z,43.34
2022-10-13T10:23:54.727Z,42.92
2022-10-13T10:26:24.966Z,43.42
2022-10-13T10:28:55.471Z,42.96
2022-10-13T10:31:23.186Z,42.91
2022-10-13T10:33:50.851Z,43.08
2022-10-13T10:36:18.559Z,43.15
2022-10-13T10:38:46.309Z,43.03
2022-10-13T10:41:14.175Z,43.33
2022-10-13T10:46:09.903Z,43.02
2022-10-13T10:48:37.634Z,43.21
2022-10-13T10:51:05.359Z,42.92
2022-10-13T10:53:33.071Z,42.94
2022-10-13T10:56:00.786Z,43.27
2022-10-13T10:58:28.450Z,43.24
2022-10-13T11:00:56.232Z,43.19
2022-10-13T11:03:23.977Z,43.28
2022-10-13T11:05:51.648Z,42.87
2022-10-13T11:08:19.450Z,43.16
2022-10-13T11:10:47.224Z,43.06
2022-10-13T11:13:14.981Z,42.88
2022-10-13T11:15:42.649Z,43.21
2022-10-13T11:18:10.348Z,43.29
2022-10-13T11:20:38.105Z,43.05
2022-10-13T11:23:05.912Z,43.37
2022-10-13T11:25:33.749Z,43.25
2022-10-13T11:28:01.463Z,43.24
2022-10-13T11:33:09.166Z,43.30
2022-10-13T11:35:36.943Z,43.10
2022-10-13T11:38:08.133Z,43.17
2022-10-13T11:40:37.138Z,43.09
2022-10-13T11:43:05.341Z,43.20
2022-10-13T11:45:35.859Z,43.32
2022-10-13T11:48:03.612Z,43.13
2022-10-13T11:50:31.415Z,43.17
2022-10-13T11:52:59.126Z,42.99
2022-10-13T11:55:26.836Z,42.96
2022-10-13T11:57:54.507Z,43.10
2022-10-13T12:00:22.215Z,43.14
2022-10-13T12:02:50.602Z,43.06
2022-10-13T12:05:18.463Z,43.39
2022-10-13T12:07:46.104Z,42.94
2022-10-13T12:10:13.828Z,43.31
2022-10-13T12:12:41.524Z,42.95
2022-10-13T12:15:09.191Z,42.95
2022-10-13T12:17:39.002Z,43.01
2022-10-13T12:20:06.727Z,42.99
2022-10-13T12:22:39.334Z,42.88
2022-10-13T12:25:08.266Z,42.94
2022-10-13T12:27:36.046Z,43.09
2022-10-13T12:30:03.762Z,43.09
2022-10-13T12:32:31.448Z,43.22
2022-10-13T12:34:59.131Z,43.27
2022-10-13T12:37:27.154Z,43.44
2022-10-13T12:39:54.824Z,43.10
2022-10-13T12:42:22.549Z,43.04
2022-10-13T12:44:50.173Z,43.07
2022-10-13T12:47:18.062Z,43.15
2022-10-13T12:49:46.009Z,43.16
2022-10-13T12:52:14.515Z,43.30
2022-10-13T12:54:42.279Z,43.16
2022-10-13T12:57:10.014Z,43.37
2022-10-13T12:59:37.703Z,43.42
2022-10-13T13:02:05.379Z,43.45
2022-10-13T13:04:33.048Z,43.66
2022-10-13T13:07:00.717Z,43.15
2022-10-13T13:09:28.562Z,43.18
2022-10-13T13:11:56.215Z,43.59
2022-10-13T13:14:23.973Z,43.75
2022-10-13T13:16:52.483Z,43.69
2022-10-13T13:19:22.255Z,43.73
2022-10-13T13:21:50.488Z,43.86
2022-10-13T13:24:35.689Z,43.83
2022-10-13T13:27:05.805Z,43.74
2022-10-13T13:29:33.497Z,43.81
2022-10-13T13:32:01.311Z,43.67
2022-10-13T13:34:29.043Z,43.73
2022-10-13T13:36:56.704Z,43.54
2022-10-13T13:39:24.911Z,43.61
2022-10-13T13:41:52.615Z,43.28
2022-10-13T13:44:20.309Z,43.47
2022-10-13T13:46:47.970Z,42.79
2022-10-13T13:49:15.694Z,36.41
2022-10-13T13:51:43.481Z,29.83
2022-10-13T13:54:11.333Z,26.55
2022-10-13T13:56:39.309Z,24.65
2022-10-13T13:59:07.005Z,23.49
2022-10-13T14:01:34.751Z,22.88
2022-10-13T14:04:03.083Z,22.27
2022-10-13T14:06:31.433Z,22.00
2022-10-13T14:08:59.083Z,21.85
2022-10-13T14:11:26.803Z,21.74
2022-10-13T14:13:54.495Z,21.85
2022-10-13T14:16:22.198Z,21.78
2022-10-13T14:18:49.906Z,22.09
2022-10-13T14:21:17.608Z,22.31
2022-10-13T14:23:47.114Z,23.23
2022-10-13T14:26:14.919Z,23.29
2022-10-13T14:28:42.949Z,24.31
2022-10-13T14:31:10.691Z,25.00
2022-10-13T14:33:38.395Z,26.25
2022-10-13T14:36:06.118Z,26.68
2022-10-13T14:38:33.929Z,27.42
2022-10-13T14:41:01.675Z,28.88
2022-10-13T14:43:29.414Z,29.32
2022-10-13T14:45:57.191Z,29.71
2022-10-13T14:48:25.011Z,30.32
2022-10-13T14:50:52.736Z,30.51
2022-10-13T14:53:20.429Z,31.12
2022-10-13T14:55:48.774Z,31.67
2022-10-13T14:58:16.456Z,32.55
2022-10-13T15:00:44.315Z,32.59
2022-10-13T15:03:11.987Z,32.96
2022-10-13T15:05:43.820Z,33.35
2022-10-13T15:08:11.478Z,33.95
2022-10-13T15:10:39.646Z,34.59
2022-10-13T15:13:07.331Z,34.90
2022-10-13T15:15:35.025Z,34.94
2022-10-13T15:18:03.080Z,35.34
2022-10-13T15:20:30.888Z,35.48
2022-10-13T15:22:58.795Z,35.98
2022-10-13T15:25:26.798Z,36.02
2022-10-13T15:27:54.456Z,36.28
2022-10-13T15:30:22.146Z,36.82
2022-10-13T15:32:50.184Z,37.32
2022-10-13T15:35:17.995Z,37.22
2022-10-13T15:37:45.950Z,35.98
2022-10-13T15:40:13.799Z,33.68
2022-10-13T15:42:41.529Z,30.84
2022-10-13T15:45:10.756Z,29.50
2022-10-13T15:47:39.183Z,29.19
2022-10-13T15:50:06.963Z,28.60
2022-10-13T15:52:35.221Z,28.95
2022-10-13T15:55:03.089Z,29.92
2022-10-13T15:57:30.827Z,30.54
2022-10-13T15:59:58.528Z,30.86
2022-10-13T16:02:26.239Z,31.01
2022-10-13T16:04:54.111Z,31.57
2022-10-13T16:07:21.791Z,32.24
2022-10-13T16:09:49.530Z,32.94
2022-10-13T16:12:17.711Z,33.46
2022-10-13T16:14:45.779Z,33.90
2022-10-13T16:17:13.471Z,34.41
2022-10-13T16:19:41.282Z,34.95
2022-10-13T16:22:09.154Z,35.30
2022-10-13T16:24:36.948Z,35.22
2022-10-13T16:27:04.838Z,35.64
2022-10-13T16:29:32.598Z,36.22
2022-10-13T16:32:01.002Z,36.26
2022-10-13T16:34:28.711Z,36.38
2022-10-13T16:36:56.423Z,37.35
2022-10-13T16:39:24.833Z,37.72
2022-10-13T16:41:52.535Z,37.32
2022-10-13T16:44:20.583Z,37.54
2022-10-13T16:46:49.644Z,37.71
2022-10-13T16:49:17.399Z,37.73
2022-10-13T16:51:45.116Z,37.39
2022-10-13T16:54:12.999Z,37.37
2022-10-13T16:56:40.865Z,37.31
2022-10-13T16:59:08.632Z,37.50
2022-10-13T17:01:36.369Z,37.82
2022-10-13T17:04:04.189Z,37.64
2022-10-13T17:06:31.899Z,38.09
2022-10-13T17:08:59.793Z,38.34
2022-10-13T17:11:27.834Z,38.72
2022-10-13T17:13:55.796Z,38.75
2022-10-13T17:16:23.618Z,38.20
2022-10-13T17:18:51.424Z,37.31
2022-10-13T17:21:19.158Z,36.68
2022-10-13T17:23:48.851Z,36.18
2022-10-13T17:26:16.691Z,35.95
2022-10-13T17:28:44.776Z,34.68
2022-10-13T17:31:12.685Z,34.24
2022-10-13T17:33:40.426Z,33.61
2022-10-13T17:36:08.139Z,32.93
2022-10-13T17:38:35.902Z,32.08
2022-10-13T17:41:03.695Z,31.58
2022-10-13T17:43:31.411Z,31.21
2022-10-13T17:46:17.733Z,31.25
2022-10-13T17:48:46.984Z,31.63
2022-10-13T17:51:14.767Z,32.00
2022-10-13T17:53:42.680Z,32.42
2022-10-13T17:56:10.379Z,33.08
2022-10-13T17:58:38.219Z,33.65
2022-10-13T18:01:13.437Z,34.13
2022-10-13T18:03:42.078Z,34.73
2022-10-13T18:06:09.998Z,35.00
2022-10-13T18:08:37.627Z,35.61
2022-10-13T18:11:08.143Z,35.88
2022-10-13T18:13:36.222Z,36.18
2022-10-13T18:16:03.950Z,36.68
2022-10-13T18:18:31.672Z,36.85
2022-10-13T18:20:59.404Z,37.35
2022-10-13T18:25:55.159Z,37.49
2022-10-13T18:28:23.050Z,37.94
2022-10-13T18:30:50.894Z,37.84
2022-10-13T18:33:18.569Z,38.03
2022-10-13T18:35:46.235Z,38.34
2022-10-13T18:38:15.250Z,38.46
2022-10-13T18:40:42.964Z,38.77
2022-10-13T18:43:10.701Z,37.26
2022-10-13T18:45:38.370Z,35.47
2022-10-13T18:48:06.169Z,34.54
2022-10-13T18:50:33.847Z,34.06
2022-10-13T18:53:01.624Z,34.08
2022-10-13T18:55:29.303Z,34.02
2022-10-13T18:57:56.992Z,34.18
2022-10-13T19:00:24.958Z,34.65
2022-10-13T19:02:53.435Z,35.01
2022-10-13T19:05:21.133Z,35.38
2022-10-13T19:07:48.862Z,35.32
2022-10-13T19:10:16.550Z,35.90
2022-10-13T19:12:44.244Z,36.30
2022-10-13T19:15:11.914Z,36.42
2022-10-13T19:17:39.611Z,37.28
2022-10-13T19:20:07.275Z,37.29
2022-10-13T19:22:34.999Z,37.77
2022-10-13T19:25:02.738Z,38.04
2022-10-13T19:27:30.495Z,38.28
2022-10-13T19:29:58.264Z,37.95
2022-10-13T19:32:25.933Z,38.65
2022-10-13T19:34:54.000Z,37.98
2022-10-13T19:37:21.968Z,38.42
2022-10-13T19:39:49.872Z,38.42
2022-10-13T19:44:50.880Z,39.14
2022-10-13T19:47:18.807Z,38.68
2022-10-13T19:49:47.338Z,39.36
2022-10-13T19:52:15.062Z,39.31
2022-10-13T19:54:42.955Z,39.25
2022-10-13T19:57:10.662Z,39.88
2022-10-13T19:59:38.301Z,39.59
2022-10-13T20:02:05.975Z,39.54
2022-10-13T20:04:33.763Z,39.73
2022-10-13T20:07:01.682Z,40.38
2022-10-13T20:09:29.714Z,39.93
2022-10-13T20:11:57.379Z,40.25
2022-10-13T20:14:25.028Z,40.72
2022-10-13T20:16:53.639Z,40.52
2022-10-13T20:19:21.391Z,40.93
2022-10-13T20:21:51.674Z,40.98
2022-10-13T20:24:20.525Z,40.59
2022-10-13T20:26:48.220Z,41.12
2022-10-13T20:29:16.077Z,40.89
2022-10-13T20:31:45.006Z,41.08
2022-10-13T20:34:12.913Z,41.48
2022-10-13T20:36:40.722Z,40.92
2022-10-13T20:39:09.124Z,41.10
2022-10-13T20:41:37.061Z,41.43
2022-10-13T20:44:04.927Z,41.72
2022-10-13T20:49:24.112Z,41.70
2022-10-13T20:51:51.845Z,41.95
2022-10-13T20:54:19.508Z,41.75
2022-10-13T20:56:47.443Z,41.92
2022-10-13T20:59:15.674Z,42.21
2022-10-13T21:01:43.419Z,41.81
2022-10-13T21:04:11.325Z,42.03
2022-10-13T21:06:39.091Z,42.40
2022-10-13T21:09:06.970Z,42.04
2022-10-13T21:11:34.689Z,42.24
2022-10-13T21:14:06.350Z,42.12
2022-10-13T21:16:34.152Z,42.26
2022-10-13T21:19:01.985Z,42.35
2022-10-13T21:21:29.905Z,42.41
2022-10-13T21:23:57.563Z,42.03
2022-10-13T21:26:25.333Z,42.01
2022-10-13T21:28:53.082Z,42.19
2022-10-13T21:31:20.937Z,42.10
2022-10-13T21:33:48.709Z,42.52
2022-10-13T21:36:16.362Z,42.28
2022-10-13T21:38:44.089Z,42.31
2022-10-13T21:41:11.814Z,42.21
2022-10-13T21:43:39.496Z,42.45
2022-10-13T21:46:07.139Z,42.48
2022-10-13T21:48:34.841Z,42.29
2022-10-13T21:51:02.535Z,42.42
2022-10-13T21:53:30.183Z,42.35
2022-10-13T21:55:57.863Z,42.31
2022-10-13T21:58:25.621Z,42.83
2022-10-13T22:00:55.785Z,42.81
2022-10-13T22:03:23.521Z,42.45
2022-10-13T22:05:53.490Z,42.72
2022-10-13T22:08:32.702Z,42.61
2022-10-13T22:11:05.678Z,42.73
2022-10-13T22:13:33.415Z,42.73
2022-10-13T22:16:01.115Z,42.54
2022-10-13T22:18:28.824Z,42.58
2022-10-13T22:20:56.529Z,42.52
2022-10-13T22:23:24.245Z,42.52
2022-10-13T22:25:55.950Z,42.74
2022-10-13T22:28:23.615Z,43.01
2022-10-13T22:30:51.348Z,43.08
2022-10-13T22:33:21.768Z,42.68
2022-10-13T22:35:49.433Z,42.89
2022-10-13T22:38:17.126Z,43.14
2022-10-13T22:40:44.864Z,42.94
2022-10-13T22:43:12.574Z,43.01
2022-10-13T22:45:40.338Z,42.81
2022-10-13T22:48:08.035Z,42.76
2022-10-13T22:50:37.859Z,42.98
2022-10-13T22:53:05.536Z,42.94
2022-10-13T22:55:36.426Z,42.81
2022-10-13T22:58:04.408Z,43.26
2022-10-13T23:00:32.192Z,43.02
2022-10-13T23:03:00.066Z,43.21
2022-10-13T23:05:27.968Z,43.15
2022-10-13T23:07:56.148Z,43.05
2022-10-13T23:10:23.953Z,42.89
2022-10-13T23:12:51.627Z,43.04
2022-10-13T23:15:19.286Z,43.28
2022-10-13T23:17:46.984Z,43.57
2022-10-13T23:20:14.665Z,43.03
2022-10-13T23:22:44.513Z,43.09
2022-10-13T23:25:12.188Z,43.06
2022-10-13T23:27:39.898Z,43.18
2022-10-13T23:30:07.671Z,43.41
2022-10-13T23:32:35.369Z,43.15
2022-10-13T23:35:03.064Z,43.07
2022-10-13T23:37:30.691Z,43.34
2022-10-13T23:39:58.364Z,43.16
2022-10-13T23:42:26.063Z,43.29
2022-10-13T23:44:53.723Z,43.35
2022-10-13T23:47:21.730Z,43.04
2022-10-13T23:49:49.701Z,43.35
2022-10-13T23:52:19.909Z,43.27
2022-10-13T23:54:50.431Z,43.44
2022-10-13T23:57:20.721Z,43.09
2022-10-13T23:59:48.795Z,43.49
